Forside
METAR-TAF:

METAR-TAF

Lufthavne :

Vladivostok Internationale Lufthavn

Vladivostok, Rusland

Breddekreds: 43-07N, længdekreds: 131-56E, højde: 184 m

Aktuelle vejr

Denne rapport blev lavet for 16 minutter siden, kl. 02:30 UTC
Vind 16 kt fra nord
Temperatur 20°C
Fugtighed 73%
Tryk 1014 hPa
Sigt 10 km eller mere
Spredte skyer i en højde af 2000 ft

METAR: UHWW 160230Z 36008MPS 9999 SCT020 20/15 Q1014 R25L/0///70 NOSIG RMK QFE759

Tid: 12:46 (02:46 UTC)

Vejrudsigter

Denne rapport blev lavet for 46 minutter siden, kl. 02:00 UTC
Foreløbig gælder fra 16 på 03 UTC til 17 på 03 UTC
Vind 12 kt fra nord
Sigt 10 km eller mere
Brudte skyer i en højde af 3000 ft, Cumulonimbus.
Midlertidig
fra 16 på 03 UTC til 16 på 10 UTC
Vind 17 kt fra nord med vindstød på up til 27 kt
Sigt: 5000 m
Brudte skyer i en højde af 1500 ft, Cumulonimbus.
let regnbyger
ændring
fra 16 på 10 UTC til 16 på 12 UTC
Vind 6 kt fra nord

TAF: UHWW 160200Z 1603/1703 35006MPS 9999 BKN030CB TEMPO 1603/1610 36009G14MPS 5000 -SHRA BKN015CB BECMG 1610/1612 36003MPS

Vejrobservationer og prognoser fra mere end 4000 lufthavne (METAR og TAF).

De gule og røde prikker repræsenterer de meteorologiske stationer.

Flyt musen over at se navnet på stationen.

Så klik over at se vejr observationer og prognoser.

At skifte det kort: Klik på de grønne knapper med et sort kors for at zoome ind; på den grønne knap med en bindestreg for at zoome ud; eller på de grønne pile for tilstødende kort.


METAR-TAF: